33TS weather

Burleson County Hospital Heliport
Caldwell, Texas, United States

Public forecast

Using degrees Fahrenheit for public forecast. Weather courtesy of forecast.io.

METAR (pilot weather report)

Closest report is Caldwell Municipal Airport, 0.7 nm (1.3 km) ESE. Retrieved 2019/09/23 18:35 UTC (16 minutes ago):

KRWV 231835Z AUTO 15005KT 10SM BKN046 BKN080 34/21 A3002 RMK AO2 T03400212

TAF (pilot weather forecast)

Closest forecast is Easterwood Field, 18.7 nm (34.6 km) ENE. Retrieved 2019/09/23 18:24 UTC (27 minutes ago):

TAF KCLL 231723Z 2318/2418 16007KT P6SM SCT045 FM240100 15006KT P6SM SCT250 FM241000 00000KT P6SM BKN022 FM241200 00000KT P6SM BKN014 FM241500 18006KT P6SM FEW021 SCT023